sensor_id;sensor_type;location;lat;lon;timestamp;temperature;humidity
45096;DHT22;30858;51.108;8.068;2022-10-22T00:01:01;11.30;99.90
45096;DHT22;30858;51.108;8.068;2022-10-22T00:03:27;11.30;99.90
45096;DHT22;30858;51.108;8.068;2022-10-22T00:08:18;11.30;99.90
45096;DHT22;30858;51.108;8.068;2022-10-22T00:10:44;11.20;99.90
45096;DHT22;30858;51.108;8.068;2022-10-22T00:13:10;11.20;99.90
45096;DHT22;30858;51.108;8.068;2022-10-22T00:15:36;11.20;99.90
45096;DHT22;30858;51.108;8.068;2022-10-22T00:18:02;11.20;99.90
45096;DHT22;30858;51.108;8.068;2022-10-22T00:20:27;11.20;99.90
45096;DHT22;30858;51.108;8.068;2022-10-22T00:22:53;11.20;99.90
45096;DHT22;30858;51.108;8.068;2022-10-22T00:25:18;11.20;99.90
45096;DHT22;30858;51.108;8.068;2022-10-22T00:27:44;11.20;99.90
45096;DHT22;30858;51.108;8.068;2022-10-22T00:30:10;11.20;99.90
45096;DHT22;30858;51.108;8.068;2022-10-22T00:32:36;11.20;99.90
45096;DHT22;30858;51.108;8.068;2022-10-22T00:35:01;11.20;99.90
45096;DHT22;30858;51.108;8.068;2022-10-22T00:37:27;11.20;99.90
45096;DHT22;30858;51.108;8.068;2022-10-22T00:39:54;11.20;99.90
45096;DHT22;30858;51.108;8.068;2022-10-22T00:42:23;11.20;99.90
45096;DHT22;30858;51.108;8.068;2022-10-22T00:47:39;11.20;99.90
45096;DHT22;30858;51.108;8.068;2022-10-22T00:50:10;11.20;99.90
45096;DHT22;30858;51.108;8.068;2022-10-22T00:52:37;11.20;99.90
45096;DHT22;30858;51.108;8.068;2022-10-22T00:55:04;11.10;99.90
45096;DHT22;30858;51.108;8.068;2022-10-22T00:57:30;11.10;99.90
45096;DHT22;30858;51.108;8.068;2022-10-22T00:59:56;11.10;99.90
45096;DHT22;30858;51.108;8.068;2022-10-22T01:02:22;11.10;99.90
45096;DHT22;30858;51.108;8.068;2022-10-22T01:04:48;11.10;99.90
45096;DHT22;30858;51.108;8.068;2022-10-22T01:07:19;11.10;99.90
45096;DHT22;30858;51.108;8.068;2022-10-22T01:12:44;11.10;99.90
45096;DHT22;30858;51.108;8.068;2022-10-22T01:15:19;11.10;99.90
45096;DHT22;30858;51.108;8.068;2022-10-22T01:26:52;11.10;99.90
45096;DHT22;30858;51.108;8.068;2022-10-22T01:31:57;11.00;99.90
45096;DHT22;30858;51.108;8.068;2022-10-22T01:34:24;11.00;99.90
45096;DHT22;30858;51.108;8.068;2022-10-22T01:36:50;11.00;99.90
45096;DHT22;30858;51.108;8.068;2022-10-22T01:39:18;11.00;99.90
45096;DHT22;30858;51.108;8.068;2022-10-22T01:41:44;11.00;99.90
45096;DHT22;30858;51.108;8.068;2022-10-22T01:44:30;11.10;99.90
45096;DHT22;30858;51.108;8.068;2022-10-22T01:47:04;11.00;99.90
45096;DHT22;30858;51.108;8.068;2022-10-22T01:49:55;11.10;99.90
45096;DHT22;30858;51.108;8.068;2022-10-22T01:53:02;11.10;99.90
45096;DHT22;30858;51.108;8.068;2022-10-22T01:56:03;11.10;99.90
45096;DHT22;30858;51.108;8.068;2022-10-22T02:01:31;11.10;99.90
45096;DHT22;30858;51.108;8.068;2022-10-22T02:04:45;11.10;99.90
45096;DHT22;30858;51.108;8.068;2022-10-22T02:06:53;11.10;99.90
45096;DHT22;30858;51.108;8.068;2022-10-22T02:09:21;11.10;99.90
45096;DHT22;30858;51.108;8.068;2022-10-22T02:11:47;11.10;99.90
45096;DHT22;30858;51.108;8.068;2022-10-22T02:14:15;11.10;99.90
45096;DHT22;30858;51.108;8.068;2022-10-22T02:16:44;11.10;99.90
45096;DHT22;30858;51.108;8.068;2022-10-22T02:21:46;11.10;99.90
45096;DHT22;30858;51.108;8.068;2022-10-22T02:24:12;11.30;99.90
45096;DHT22;30858;51.108;8.068;2022-10-22T02:29:14;11.20;99.90
45096;DHT22;30858;51.108;8.068;2022-10-22T02:31:44;11.10;99.90
45096;DHT22;30858;51.108;8.068;2022-10-22T02:34:13;11.10;99.90
45096;DHT22;30858;51.108;8.068;2022-10-22T02:36:41;11.10;99.90
45096;DHT22;30858;51.108;8.068;2022-10-22T02:39:08;11.10;99.90
45096;DHT22;30858;51.108;8.068;2022-10-22T02:41:35;11.10;99.90
45096;DHT22;30858;51.108;8.068;2022-10-22T02:44:05;11.00;99.90
45096;DHT22;30858;51.108;8.068;2022-10-22T02:46:31;11.00;99.90
45096;DHT22;30858;51.108;8.068;2022-10-22T02:48:57;11.00;99.90
45096;DHT22;30858;51.108;8.068;2022-10-22T02:51:22;11.00;99.90
45096;DHT22;30858;51.108;8.068;2022-10-22T02:53:48;11.00;99.90
45096;DHT22;30858;51.108;8.068;2022-10-22T02:56:13;11.10;99.90
45096;DHT22;30858;51.108;8.068;2022-10-22T02:58:39;11.10;99.90
45096;DHT22;30858;51.108;8.068;2022-10-22T03:01:05;11.10;99.90
45096;DHT22;30858;51.108;8.068;2022-10-22T03:03:30;11.10;99.90
45096;DHT22;30858;51.108;8.068;2022-10-22T03:05:56;11.20;99.90
45096;DHT22;30858;51.108;8.068;2022-10-22T03:08:21;11.20;99.90
45096;DHT22;30858;51.108;8.068;2022-10-22T03:10:47;11.20;99.90
45096;DHT22;30858;51.108;8.068;2022-10-22T03:13:12;11.20;99.90
45096;DHT22;30858;51.108;8.068;2022-10-22T03:15:38;11.20;99.90
45096;DHT22;30858;51.108;8.068;2022-10-22T03:18:03;11.20;99.90
45096;DHT22;30858;51.108;8.068;2022-10-22T03:20:29;11.20;99.90
45096;DHT22;30858;51.108;8.068;2022-10-22T03:22:55;11.30;99.90
45096;DHT22;30858;51.108;8.068;2022-10-22T03:25:23;11.30;99.90
45096;DHT22;30858;51.108;8.068;2022-10-22T03:27:51;11.30;99.90
45096;DHT22;30858;51.108;8.068;2022-10-22T03:30:18;11.40;99.90
45096;DHT22;30858;51.108;8.068;2022-10-22T03:32:44;11.40;99.90
45096;DHT22;30858;51.108;8.068;2022-10-22T03:35:10;11.40;99.90
45096;DHT22;30858;51.108;8.068;2022-10-22T03:37:36;11.50;99.90
45096;DHT22;30858;51.108;8.068;2022-10-22T03:40:04;11.60;99.90
45096;DHT22;30858;51.108;8.068;2022-10-22T03:42:30;11.60;99.90
45096;DHT22;30858;51.108;8.068;2022-10-22T03:44:56;11.60;99.90
45096;DHT22;30858;51.108;8.068;2022-10-22T03:47:21;11.60;99.90
45096;DHT22;30858;51.108;8.068;2022-10-22T03:49:50;11.60;99.90
45096;DHT22;30858;51.108;8.068;2022-10-22T03:52:16;11.60;99.90
45096;DHT22;30858;51.108;8.068;2022-10-22T03:54:42;11.70;99.90
45096;DHT22;30858;51.108;8.068;2022-10-22T03:57:08;11.60;99.90
45096;DHT22;30858;51.108;8.068;2022-10-22T03:59:42;11.60;99.90
45096;DHT22;30858;51.108;8.068;2022-10-22T04:02:09;11.60;99.90
45096;DHT22;30858;51.108;8.068;2022-10-22T04:04:35;11.60;99.90
45096;DHT22;30858;51.108;8.068;2022-10-22T04:07:01;11.60;99.90
45096;DHT22;30858;51.108;8.068;2022-10-22T04:09:29;11.70;99.90
45096;DHT22;30858;51.108;8.068;2022-10-22T04:11:54;11.70;99.90
45096;DHT22;30858;51.108;8.068;2022-10-22T04:14:20;11.70;99.90
45096;DHT22;30858;51.108;8.068;2022-10-22T04:16:45;11.70;99.90
45096;DHT22;30858;51.108;8.068;2022-10-22T04:19:12;11.70;99.90
45096;DHT22;30858;51.108;8.068;2022-10-22T04:21:37;11.90;99.90
45096;DHT22;30858;51.108;8.068;2022-10-22T04:24:03;12.00;99.90
45096;DHT22;30858;51.108;8.068;2022-10-22T04:26:29;12.00;99.90
45096;DHT22;30858;51.108;8.068;2022-10-22T04:28:54;12.00;99.90
45096;DHT22;30858;51.108;8.068;2022-10-22T04:31:22;12.10;99.90
45096;DHT22;30858;51.108;8.068;2022-10-22T04:33:52;12.00;99.90
45096;DHT22;30858;51.108;8.068;2022-10-22T04:36:18;12.00;99.90
45096;DHT22;30858;51.108;8.068;2022-10-22T04:38:45;11.90;99.90
45096;DHT22;30858;51.108;8.068;2022-10-22T04:41:16;11.90;99.90
45096;DHT22;30858;51.108;8.068;2022-10-22T04:43:42;11.80;99.90
45096;DHT22;30858;51.108;8.068;2022-10-22T04:46:09;11.70;99.90
45096;DHT22;30858;51.108;8.068;2022-10-22T04:48:36;11.60;99.90
45096;DHT22;30858;51.108;8.068;2022-10-22T04:51:03;11.60;99.90
45096;DHT22;30858;51.108;8.068;2022-10-22T04:53:29;11.60;99.90
45096;DHT22;30858;51.108;8.068;2022-10-22T04:55:54;11.50;99.90
45096;DHT22;30858;51.108;8.068;2022-10-22T04:58:30;11.40;99.90
45096;DHT22;30858;51.108;8.068;2022-10-22T05:00:55;11.40;99.90
45096;DHT22;30858;51.108;8.068;2022-10-22T05:03:24;11.40;99.90
45096;DHT22;30858;51.108;8.068;2022-10-22T05:05:49;11.40;99.90
45096;DHT22;30858;51.108;8.068;2022-10-22T05:08:15;11.40;99.90
45096;DHT22;30858;51.108;8.068;2022-10-22T05:10:40;11.40;99.90
45096;DHT22;30858;51.108;8.068;2022-10-22T05:13:06;11.40;99.90
45096;DHT22;30858;51.108;8.068;2022-10-22T05:15:32;11.40;99.90
45096;DHT22;30858;51.108;8.068;2022-10-22T05:17:58;11.40;99.90
45096;DHT22;30858;51.108;8.068;2022-10-22T05:20:24;11.40;99.90
45096;DHT22;30858;51.108;8.068;2022-10-22T05:22:49;11.40;99.90
45096;DHT22;30858;51.108;8.068;2022-10-22T05:25:15;11.60;99.90
45096;DHT22;30858;51.108;8.068;2022-10-22T05:27:40;11.60;99.90
45096;DHT22;30858;51.108;8.068;2022-10-22T05:30:06;11.50;99.90
45096;DHT22;30858;51.108;8.068;2022-10-22T05:32:34;11.50;99.90
45096;DHT22;30858;51.108;8.068;2022-10-22T05:34:59;11.50;99.90
45096;DHT22;30858;51.108;8.068;2022-10-22T05:37:25;11.40;99.90
45096;DHT22;30858;51.108;8.068;2022-10-22T05:39:50;11.30;99.90
45096;DHT22;30858;51.108;8.068;2022-10-22T05:42:16;11.30;99.90
45096;DHT22;30858;51.108;8.068;2022-10-22T05:44:41;11.30;99.90
45096;DHT22;30858;51.108;8.068;2022-10-22T05:47:07;11.30;99.90
45096;DHT22;30858;51.108;8.068;2022-10-22T05:49:34;11.30;99.90
45096;DHT22;30858;51.108;8.068;2022-10-22T05:51:59;11.30;99.90
45096;DHT22;30858;51.108;8.068;2022-10-22T05:54:25;11.20;99.90
45096;DHT22;30858;51.108;8.068;2022-10-22T05:56:51;11.20;99.90
45096;DHT22;30858;51.108;8.068;2022-10-22T05:59:16;11.20;99.90
45096;DHT22;30858;51.108;8.068;2022-10-22T06:01:42;11.20;99.90
45096;DHT22;30858;51.108;8.068;2022-10-22T06:04:11;11.20;99.90
45096;DHT22;30858;51.108;8.068;2022-10-22T06:06:39;11.30;99.90
45096;DHT22;30858;51.108;8.068;2022-10-22T06:09:29;11.20;99.90
45096;DHT22;30858;51.108;8.068;2022-10-22T06:11:56;11.20;99.90
45096;DHT22;30858;51.108;8.068;2022-10-22T06:14:22;11.20;99.90
45096;DHT22;30858;51.108;8.068;2022-10-22T06:16:49;11.20;99.90
45096;DHT22;30858;51.108;8.068;2022-10-22T06:19:16;11.20;99.90
45096;DHT22;30858;51.108;8.068;2022-10-22T06:21:42;11.20;99.90
45096;DHT22;30858;51.108;8.068;2022-10-22T06:24:09;11.30;99.90
45096;DHT22;30858;51.108;8.068;2022-10-22T06:26:34;11.30;99.90
45096;DHT22;30858;51.108;8.068;2022-10-22T06:29:00;11.40;99.90
45096;DHT22;30858;51.108;8.068;2022-10-22T06:31:27;11.50;99.90
45096;DHT22;30858;51.108;8.068;2022-10-22T06:33:53;11.50;99.90
45096;DHT22;30858;51.108;8.068;2022-10-22T06:36:22;11.50;99.90
45096;DHT22;30858;51.108;8.068;2022-10-22T06:38:51;11.50;99.90
45096;DHT22;30858;51.108;8.068;2022-10-22T06:41:16;11.50;99.90
45096;DHT22;30858;51.108;8.068;2022-10-22T06:43:43;11.50;99.90
45096;DHT22;30858;51.108;8.068;2022-10-22T06:46:10;11.40;99.90
45096;DHT22;30858;51.108;8.068;2022-10-22T06:48:37;11.50;99.90
45096;DHT22;30858;51.108;8.068;2022-10-22T06:51:04;11.60;99.90
45096;DHT22;30858;51.108;8.068;2022-10-22T06:53:30;11.80;99.90
45096;DHT22;30858;51.108;8.068;2022-10-22T06:55:55;12.00;99.90
45096;DHT22;30858;51.108;8.068;2022-10-22T06:58:21;12.00;99.90
45096;DHT22;30858;51.108;8.068;2022-10-22T07:00:47;12.00;99.90
45096;DHT22;30858;51.108;8.068;2022-10-22T07:03:13;12.00;99.90
45096;DHT22;30858;51.108;8.068;2022-10-22T07:05:39;12.00;99.90
45096;DHT22;30858;51.108;8.068;2022-10-22T07:08:05;12.00;99.90
45096;DHT22;30858;51.108;8.068;2022-10-22T07:10:31;12.10;99.90
45096;DHT22;30858;51.108;8.068;2022-10-22T07:12:57;12.00;99.90
45096;DHT22;30858;51.108;8.068;2022-10-22T07:15:23;12.10;99.90
45096;DHT22;30858;51.108;8.068;2022-10-22T07:17:48;12.00;99.90
45096;DHT22;30858;51.108;8.068;2022-10-22T07:20:16;12.20;99.90
45096;DHT22;30858;51.108;8.068;2022-10-22T07:22:43;12.30;99.90
45096;DHT22;30858;51.108;8.068;2022-10-22T07:25:09;12.40;99.90
45096;DHT22;30858;51.108;8.068;2022-10-22T07:27:34;12.50;99.90
45096;DHT22;30858;51.108;8.068;2022-10-22T07:30:00;12.60;99.90
45096;DHT22;30858;51.108;8.068;2022-10-22T07:32:26;12.70;99.90
45096;DHT22;30858;51.108;8.068;2022-10-22T07:34:51;12.90;99.90
45096;DHT22;30858;51.108;8.068;2022-10-22T07:37:17;13.10;99.90
45096;DHT22;30858;51.108;8.068;2022-10-22T07:39:48;13.30;99.90
45096;DHT22;30858;51.108;8.068;2022-10-22T07:42:14;13.40;99.90
45096;DHT22;30858;51.108;8.068;2022-10-22T07:44:40;13.50;99.90
45096;DHT22;30858;51.108;8.068;2022-10-22T07:47:05;13.60;99.90
45096;DHT22;30858;51.108;8.068;2022-10-22T07:49:31;13.70;99.90
45096;DHT22;30858;51.108;8.068;2022-10-22T07:51:56;13.80;99.90
45096;DHT22;30858;51.108;8.068;2022-10-22T07:54:23;13.80;99.90
45096;DHT22;30858;51.108;8.068;2022-10-22T07:56:48;13.80;99.90
45096;DHT22;30858;51.108;8.068;2022-10-22T07:59:14;13.80;99.90
45096;DHT22;30858;51.108;8.068;2022-10-22T08:01:39;13.80;99.90
45096;DHT22;30858;51.108;8.068;2022-10-22T08:04:05;13.80;99.90
45096;DHT22;30858;51.108;8.068;2022-10-22T08:06:33;13.90;99.90
45096;DHT22;30858;51.108;8.068;2022-10-22T08:08:58;14.00;99.90
45096;DHT22;30858;51.108;8.068;2022-10-22T08:11:24;14.00;99.90
45096;DHT22;30858;51.108;8.068;2022-10-22T08:13:51;14.10;99.90
45096;DHT22;30858;51.108;8.068;2022-10-22T08:16:17;14.20;99.90
45096;DHT22;30858;51.108;8.068;2022-10-22T08:18:42;14.30;99.90
45096;DHT22;30858;51.108;8.068;2022-10-22T08:21:08;14.70;99.90
45096;DHT22;30858;51.108;8.068;2022-10-22T08:23:34;15.00;99.90
45096;DHT22;30858;51.108;8.068;2022-10-22T08:25:59;15.10;99.90
45096;DHT22;30858;51.108;8.068;2022-10-22T08:28:27;15.50;99.90
45096;DHT22;30858;51.108;8.068;2022-10-22T08:30:54;15.70;99.90
45096;DHT22;30858;51.108;8.068;2022-10-22T08:33:20;16.00;99.90
45096;DHT22;30858;51.108;8.068;2022-10-22T08:35:50;16.70;99.90
45096;DHT22;30858;51.108;8.068;2022-10-22T08:38:17;17.00;99.90
45096;DHT22;30858;51.108;8.068;2022-10-22T08:40:49;17.30;99.90
45096;DHT22;30858;51.108;8.068;2022-10-22T08:43:47;17.20;99.90
45096;DHT22;30858;51.108;8.068;2022-10-22T08:48:57;17.40;99.90
45096;DHT22;30858;51.108;8.068;2022-10-22T08:51:26;17.30;99.90
45096;DHT22;30858;51.108;8.068;2022-10-22T08:56:44;16.90;99.90
45096;DHT22;30858;51.108;8.068;2022-10-22T08:59:16;16.70;99.90
45096;DHT22;30858;51.108;8.068;2022-10-22T09:01:46;16.50;99.90
45096;DHT22;30858;51.108;8.068;2022-10-22T09:07:16;16.50;99.90
45096;DHT22;30858;51.108;8.068;2022-10-22T09:09:44;16.60;99.90
45096;DHT22;30858;51.108;8.068;2022-10-22T09:12:15;16.60;99.90
45096;DHT22;30858;51.108;8.068;2022-10-22T09:14:41;16.30;99.90
45096;DHT22;30858;51.108;8.068;2022-10-22T09:17:27;16.20;99.90
45096;DHT22;30858;51.108;8.068;2022-10-22T09:20:15;16.30;99.90
45096;DHT22;30858;51.108;8.068;2022-10-22T09:25:31;16.30;99.90
45096;DHT22;30858;51.108;8.068;2022-10-22T09:27:57;16.30;99.90
45096;DHT22;30858;51.108;8.068;2022-10-22T09:30:28;16.40;99.90
45096;DHT22;30858;51.108;8.068;2022-10-22T09:35:34;16.40;99.90
45096;DHT22;30858;51.108;8.068;2022-10-22T09:38:06;16.20;99.90
45096;DHT22;30858;51.108;8.068;2022-10-22T09:40:46;16.10;99.90
45096;DHT22;30858;51.108;8.068;2022-10-22T09:43:12;16.10;99.90
45096;DHT22;30858;51.108;8.068;2022-10-22T09:45:39;16.20;99.90
45096;DHT22;30858;51.108;8.068;2022-10-22T09:48:19;16.10;99.90
45096;DHT22;30858;51.108;8.068;2022-10-22T09:50:49;16.00;99.90
45096;DHT22;30858;51.108;8.068;2022-10-22T09:53:22;16.00;99.90
45096;DHT22;30858;51.108;8.068;2022-10-22T09:55:55;16.00;99.90
45096;DHT22;30858;51.108;8.068;2022-10-22T09:58:21;15.90;99.90
45096;DHT22;30858;51.108;8.068;2022-10-22T10:00:55;15.80;99.90
45096;DHT22;30858;51.108;8.068;2022-10-22T10:03:27;15.80;99.90
45096;DHT22;30858;51.108;8.068;2022-10-22T10:05:57;15.80;99.90
45096;DHT22;30858;51.108;8.068;2022-10-22T10:08:23;15.90;99.90
45096;DHT22;30858;51.108;8.068;2022-10-22T10:10:53;15.80;99.90
45096;DHT22;30858;51.108;8.068;2022-10-22T10:13:42;15.80;99.90
45096;DHT22;30858;51.108;8.068;2022-10-22T10:16:24;15.80;99.90
45096;DHT22;30858;51.108;8.068;2022-10-22T10:19:24;15.90;99.90
45096;DHT22;30858;51.108;8.068;2022-10-22T10:22:32;15.90;99.90
45096;DHT22;30858;51.108;8.068;2022-10-22T10:25:26;15.90;99.90
45096;DHT22;30858;51.108;8.068;2022-10-22T10:28:03;16.10;99.90
45096;DHT22;30858;51.108;8.068;2022-10-22T10:30:37;16.20;99.90
45096;DHT22;30858;51.108;8.068;2022-10-22T10:38:41;16.40;99.90
45096;DHT22;30858;51.108;8.068;2022-10-22T10:46:32;16.60;99.90
45096;DHT22;30858;51.108;8.068;2022-10-22T10:49:15;16.70;99.90
45096;DHT22;30858;51.108;8.068;2022-10-22T10:55:13;16.70;99.90
45096;DHT22;30858;51.108;8.068;2022-10-22T10:58:11;16.70;99.90
45096;DHT22;30858;51.108;8.068;2022-10-22T11:00:52;16.60;99.90
45096;DHT22;30858;51.108;8.068;2022-10-22T11:06:18;16.50;99.90
45096;DHT22;30858;51.108;8.068;2022-10-22T11:08:51;16.40;99.90
45096;DHT22;30858;51.108;8.068;2022-10-22T11:11:44;16.50;99.90
45096;DHT22;30858;51.108;8.068;2022-10-22T11:16:51;16.50;99.90
45096;DHT22;30858;51.108;8.068;2022-10-22T11:19:43;16.60;99.90
45096;DHT22;30858;51.108;8.068;2022-10-22T11:22:23;16.70;99.90
45096;DHT22;30858;51.108;8.068;2022-10-22T11:30:17;16.90;99.90
45096;DHT22;30858;51.108;8.068;2022-10-22T11:32:47;16.80;99.90
45096;DHT22;30858;51.108;8.068;2022-10-22T11:35:17;16.90;99.90
45096;DHT22;30858;51.108;8.068;2022-10-22T11:37:44;16.80;99.90
45096;DHT22;30858;51.108;8.068;2022-10-22T11:40:30;16.80;99.90
45096;DHT22;30858;51.108;8.068;2022-10-22T11:43:02;16.70;99.90
45096;DHT22;30858;51.108;8.068;2022-10-22T11:50:56;16.50;99.90
45096;DHT22;30858;51.108;8.068;2022-10-22T11:55:51;16.50;99.90
45096;DHT22;30858;51.108;8.068;2022-10-22T11:58:27;16.50;99.90
45096;DHT22;30858;51.108;8.068;2022-10-22T12:08:30;16.80;99.90
45096;DHT22;30858;51.108;8.068;2022-10-22T12:11:03;16.80;99.90
45096;DHT22;30858;51.108;8.068;2022-10-22T12:13:33;16.90;99.90
45096;DHT22;30858;51.108;8.068;2022-10-22T12:16:15;16.90;99.90
45096;DHT22;30858;51.108;8.068;2022-10-22T12:18:41;16.70;99.90
45096;DHT22;30858;51.108;8.068;2022-10-22T12:21:12;16.80;99.90
45096;DHT22;30858;51.108;8.068;2022-10-22T12:23:39;16.70;99.90
45096;DHT22;30858;51.108;8.068;2022-10-22T12:26:05;16.70;99.90
45096;DHT22;30858;51.108;8.068;2022-10-22T12:28:38;16.60;99.90
45096;DHT22;30858;51.108;8.068;2022-10-22T12:31:05;16.70;99.90
45096;DHT22;30858;51.108;8.068;2022-10-22T12:33:31;16.60;99.90
45096;DHT22;30858;51.108;8.068;2022-10-22T12:35:57;16.70;99.90
45096;DHT22;30858;51.108;8.068;2022-10-22T12:38:24;16.70;99.90
45096;DHT22;30858;51.108;8.068;2022-10-22T12:40:53;16.70;99.90
45096;DHT22;30858;51.108;8.068;2022-10-22T12:43:29;16.60;99.90
45096;DHT22;30858;51.108;8.068;2022-10-22T12:45:55;16.70;99.90
45096;DHT22;30858;51.108;8.068;2022-10-22T12:48:25;16.70;99.90
45096;DHT22;30858;51.108;8.068;2022-10-22T12:50:57;16.60;99.90
45096;DHT22;30858;51.108;8.068;2022-10-22T12:53:32;16.70;99.90
45096;DHT22;30858;51.108;8.068;2022-10-22T12:56:13;16.70;99.90
45096;DHT22;30858;51.108;8.068;2022-10-22T12:58:50;16.70;99.90
45096;DHT22;30858;51.108;8.068;2022-10-22T13:01:17;16.70;99.90
45096;DHT22;30858;51.108;8.068;2022-10-22T13:04:01;16.70;99.90
45096;DHT22;30858;51.108;8.068;2022-10-22T13:06:28;16.70;99.90
45096;DHT22;30858;51.108;8.068;2022-10-22T13:11:33;16.60;99.90
45096;DHT22;30858;51.108;8.068;2022-10-22T13:14:04;16.50;99.90
45096;DHT22;30858;51.108;8.068;2022-10-22T13:16:30;16.70;99.90
45096;DHT22;30858;51.108;8.068;2022-10-22T13:18:56;16.90;99.90
45096;DHT22;30858;51.108;8.068;2022-10-22T13:21:36;17.50;99.90
45096;DHT22;30858;51.108;8.068;2022-10-22T13:24:18;17.90;99.90
45096;DHT22;30858;51.108;8.068;2022-10-22T13:26:48;17.80;99.90
45096;DHT22;30858;51.108;8.068;2022-10-22T13:29:16;18.00;99.90
45096;DHT22;30858;51.108;8.068;2022-10-22T13:31:48;18.00;99.90
45096;DHT22;30858;51.108;8.068;2022-10-22T13:34:21;18.10;99.90
45096;DHT22;30858;51.108;8.068;2022-10-22T13:36:48;18.60;99.90
45096;DHT22;30858;51.108;8.068;2022-10-22T13:39:22;19.10;99.90
45096;DHT22;30858;51.108;8.068;2022-10-22T13:41:48;19.10;99.90
45096;DHT22;30858;51.108;8.068;2022-10-22T13:44:15;19.10;99.90
45096;DHT22;30858;51.108;8.068;2022-10-22T13:46:41;18.60;99.90
45096;DHT22;30858;51.108;8.068;2022-10-22T13:49:15;18.20;99.90
45096;DHT22;30858;51.108;8.068;2022-10-22T13:51:42;17.70;99.90
45096;DHT22;30858;51.108;8.068;2022-10-22T13:54:17;17.60;99.90
45096;DHT22;30858;51.108;8.068;2022-10-22T13:56:43;17.40;99.90
45096;DHT22;30858;51.108;8.068;2022-10-22T13:59:09;17.40;99.90
45096;DHT22;30858;51.108;8.068;2022-10-22T14:01:35;17.30;99.90
45096;DHT22;30858;51.108;8.068;2022-10-22T14:04:04;17.30;99.90
45096;DHT22;30858;51.108;8.068;2022-10-22T14:06:31;17.10;99.90
45096;DHT22;30858;51.108;8.068;2022-10-22T14:08:59;17.00;99.90
45096;DHT22;30858;51.108;8.068;2022-10-22T14:11:26;16.80;99.90
45096;DHT22;30858;51.108;8.068;2022-10-22T14:13:52;16.70;99.90
45096;DHT22;30858;51.108;8.068;2022-10-22T14:16:20;16.70;99.90
45096;DHT22;30858;51.108;8.068;2022-10-22T14:18:47;16.70;99.90
45096;DHT22;30858;51.108;8.068;2022-10-22T14:21:14;16.70;99.90
45096;DHT22;30858;51.108;8.068;2022-10-22T14:23:40;16.70;99.90
45096;DHT22;30858;51.108;8.068;2022-10-22T14:26:06;16.80;99.90
45096;DHT22;30858;51.108;8.068;2022-10-22T14:28:33;16.90;99.90
45096;DHT22;30858;51.108;8.068;2022-10-22T14:30:59;17.10;99.90
45096;DHT22;30858;51.108;8.068;2022-10-22T14:33:32;17.00;99.90
45096;DHT22;30858;51.108;8.068;2022-10-22T14:35:59;17.00;99.90
45096;DHT22;30858;51.108;8.068;2022-10-22T14:38:25;16.70;99.90
45096;DHT22;30858;51.108;8.068;2022-10-22T14:40:50;16.70;99.90
45096;DHT22;30858;51.108;8.068;2022-10-22T14:43:21;16.70;99.90
45096;DHT22;30858;51.108;8.068;2022-10-22T14:45:47;16.70;99.90
45096;DHT22;30858;51.108;8.068;2022-10-22T14:48:13;16.70;99.90
45096;DHT22;30858;51.108;8.068;2022-10-22T14:50:40;16.60;99.90
45096;DHT22;30858;51.108;8.068;2022-10-22T14:53:06;16.90;99.90
45096;DHT22;30858;51.108;8.068;2022-10-22T14:55:31;17.10;99.90
45096;DHT22;30858;51.108;8.068;2022-10-22T14:57:57;17.30;99.90
45096;DHT22;30858;51.108;8.068;2022-10-22T15:00:22;18.10;99.90
45096;DHT22;30858;51.108;8.068;2022-10-22T15:02:48;18.20;99.90
45096;DHT22;30858;51.108;8.068;2022-10-22T15:05:14;18.50;99.90
45096;DHT22;30858;51.108;8.068;2022-10-22T15:07:42;18.40;99.90
45096;DHT22;30858;51.108;8.068;2022-10-22T15:10:08;18.20;99.90
45096;DHT22;30858;51.108;8.068;2022-10-22T15:12:34;18.00;99.90
45096;DHT22;30858;51.108;8.068;2022-10-22T15:15:00;17.70;99.90
45096;DHT22;30858;51.108;8.068;2022-10-22T15:17:25;17.40;99.90
45096;DHT22;30858;51.108;8.068;2022-10-22T15:19:51;17.10;99.90
45096;DHT22;30858;51.108;8.068;2022-10-22T15:22:17;17.00;99.90
45096;DHT22;30858;51.108;8.068;2022-10-22T15:24:43;16.70;99.90
45096;DHT22;30858;51.108;8.068;2022-10-22T15:27:10;16.60;99.90
45096;DHT22;30858;51.108;8.068;2022-10-22T15:29:38;16.40;99.90
45096;DHT22;30858;51.108;8.068;2022-10-22T15:32:04;16.40;99.90
45096;DHT22;30858;51.108;8.068;2022-10-22T15:34:32;16.30;99.90
45096;DHT22;30858;51.108;8.068;2022-10-22T15:36:59;16.10;99.90
45096;DHT22;30858;51.108;8.068;2022-10-22T15:39:25;16.10;99.90
45096;DHT22;30858;51.108;8.068;2022-10-22T15:41:52;16.00;99.90
45096;DHT22;30858;51.108;8.068;2022-10-22T15:44:22;16.00;99.90
45096;DHT22;30858;51.108;8.068;2022-10-22T15:46:49;15.90;99.90
45096;DHT22;30858;51.108;8.068;2022-10-22T15:49:26;15.80;99.90
45096;DHT22;30858;51.108;8.068;2022-10-22T15:51:52;15.80;99.90
45096;DHT22;30858;51.108;8.068;2022-10-22T15:54:21;15.80;99.90
45096;DHT22;30858;51.108;8.068;2022-10-22T15:56:47;15.70;99.90
45096;DHT22;30858;51.108;8.068;2022-10-22T15:59:14;15.70;99.90
45096;DHT22;30858;51.108;8.068;2022-10-22T16:01:41;15.60;99.90
45096;DHT22;30858;51.108;8.068;2022-10-22T16:04:07;15.50;99.90
45096;DHT22;30858;51.108;8.068;2022-10-22T16:06:39;15.40;99.90
45096;DHT22;30858;51.108;8.068;2022-10-22T16:09:08;15.40;99.90
45096;DHT22;30858;51.108;8.068;2022-10-22T16:11:36;15.30;99.90
45096;DHT22;30858;51.108;8.068;2022-10-22T16:14:03;15.10;99.90
45096;DHT22;30858;51.108;8.068;2022-10-22T16:16:30;15.00;99.90
45096;DHT22;30858;51.108;8.068;2022-10-22T16:18:56;14.90;99.90
45096;DHT22;30858;51.108;8.068;2022-10-22T16:21:22;14.90;99.90
45096;DHT22;30858;51.108;8.068;2022-10-22T16:23:48;14.80;99.90
45096;DHT22;30858;51.108;8.068;2022-10-22T16:26:15;14.70;99.90
45096;DHT22;30858;51.108;8.068;2022-10-22T16:28:42;14.70;99.90
45096;DHT22;30858;51.108;8.068;2022-10-22T16:31:11;14.70;99.90
45096;DHT22;30858;51.108;8.068;2022-10-22T16:33:38;14.60;99.90
45096;DHT22;30858;51.108;8.068;2022-10-22T16:36:05;14.50;99.90
45096;DHT22;30858;51.108;8.068;2022-10-22T16:38:31;14.50;99.90
45096;DHT22;30858;51.108;8.068;2022-10-22T16:41:15;14.50;99.90
45096;DHT22;30858;51.108;8.068;2022-10-22T16:43:41;14.40;99.90
45096;DHT22;30858;51.108;8.068;2022-10-22T16:46:09;14.30;99.90
45096;DHT22;30858;51.108;8.068;2022-10-22T16:48:34;14.30;99.90
45096;DHT22;30858;51.108;8.068;2022-10-22T16:51:09;14.20;99.90
45096;DHT22;30858;51.108;8.068;2022-10-22T16:53:36;14.10;99.90
45096;DHT22;30858;51.108;8.068;2022-10-22T16:56:02;14.10;99.90
45096;DHT22;30858;51.108;8.068;2022-10-22T16:58:28;14.00;99.90
45096;DHT22;30858;51.108;8.068;2022-10-22T17:00:53;14.00;99.90
45096;DHT22;30858;51.108;8.068;2022-10-22T17:03:19;14.00;99.90
45096;DHT22;30858;51.108;8.068;2022-10-22T17:05:45;13.90;99.90